Time;durP1;ratioP1;P1;durP2;ratioP2;P2;SDS_P1;SDS_P2;PMS_P1;PMS_P2;Temp;Humidity;BMP_temperature;BMP_pressure;BME280_temperature;BME280_humidity;BME280_pressure;Samples;Min_cycle;Max_cycle;Signal;HPM_P1;HPM_P2
2022/08/04 00:03:10;;;;;;;2.70;2.45;;;;;;;21.15;67.08;96517.13;10536156;28;20190;-70
2022/08/04 00:08:22;;;;;;;3.25;2.80;;;;;;;21.25;66.41;96516.56;10534461;28;20191;-70
2022/08/04 00:13:24;;;;;;;3.03;2.55;;;;;;;21.22;66.73;96520.50;10536092;28;20571;-70
2022/08/04 00:18:38;;;;;;;3.80;2.35;;;;;;;21.16;66.77;96516.06;10534859;28;20713;-70
2022/08/04 00:23:42;;;;;;;3.95;2.33;;;;;;;21.16;66.68;96532.06;10534368;28;20210;-71
2022/08/04 00:28:43;;;;;;;6.63;2.72;;;;;;;21.03;67.09;96525.91;10535062;28;20190;-70
2022/08/04 00:33:44;;;;;;;5.88;2.35;;;;;;;21.18;66.26;96520.16;10533932;28;20670;-71
2022/08/04 00:38:45;;;;;;;3.17;2.22;;;;;;;21.24;65.89;96515.75;10533700;28;20559;-70
2022/08/04 00:44:36;;;;;;;3.38;2.40;;;;;;;21.23;66.07;96516.00;10533293;28;20225;-71
2022/08/04 00:49:58;;;;;;;4.80;2.47;;;;;;;21.27;65.58;96506.47;10492456;28;20673;-70
2022/08/04 00:55:04;;;;;;;3.70;2.30;;;;;;;21.34;65.20;96508.00;10534327;28;20222;-70
2022/08/04 01:00:13;;;;;;;3.45;2.40;;;;;;;21.56;64.13;96488.78;10533085;28;20645;-70
2022/08/04 01:05:37;;;;;;;2.47;2.25;;;;;;;21.46;64.78;96504.53;10533895;28;20218;-71
2022/08/04 01:10:40;;;;;;;2.03;1.85;;;;;;;21.55;64.03;96503.19;10532400;28;20668;-70
2022/08/04 01:15:52;;;;;;;3.22;2.10;;;;;;;21.50;64.23;96500.38;10534351;28;20182;-71
2022/08/04 01:21:29;;;;;;;4.72;2.10;;;;;;;21.59;63.82;96495.53;10533993;28;20665;-71
2022/08/04 01:27:00;;;;;;;2.70;2.35;;;;;;;21.76;63.08;96483.13;10534753;28;20265;-71
2022/08/04 01:32:04;;;;;;;2.42;2.22;;;;;;;21.82;62.76;96479.53;10540314;28;20190;-70
2022/08/04 01:37:27;;;;;;;2.55;2.10;;;;;;;21.78;63.03;96485.56;10540644;28;20218;-71
2022/08/04 01:42:30;;;;;;;2.10;1.90;;;;;;;21.76;63.35;96488.47;10540488;28;20182;-71
2022/08/04 01:47:34;;;;;;;2.30;2.10;;;;;;;21.86;62.93;96486.00;10541533;28;20957;-71
2022/08/04 01:52:36;;;;;;;4.35;2.15;;;;;;;21.91;62.73;96477.28;10540956;28;20237;-70
2022/08/04 01:57:41;;;;;;;4.82;2.30;;;;;;;21.92;62.86;96479.72;10541159;28;20287;-70
2022/08/04 02:02:44;;;;;;;3.33;2.08;;;;;;;21.85;62.96;96483.56;10540705;28;20191;-71
2022/08/04 02:08:04;;;;;;;2.38;2.17;;;;;;;21.86;62.83;96479.88;10540622;28;20222;-71
2022/08/04 02:13:27;;;;;;;3.88;2.55;;;;;;;21.73;63.55;96487.06;10539357;28;20198;-71
2022/08/04 02:18:58;;;;;;;2.50;2.20;;;;;;;21.77;63.32;96481.28;10522068;28;20179;-71
2022/08/04 02:24:06;;;;;;;2.45;2.25;;;;;;;21.72;63.46;96493.44;10522247;28;20669;-71
2022/08/04 02:29:17;;;;;;;2.30;2.10;;;;;;;21.48;64.44;96492.59;10539719;28;20285;-71
2022/08/04 02:34:43;;;;;;;6.80;2.38;;;;;;;21.48;64.42;96489.13;10520896;28;20613;-71
2022/08/04 02:39:44;;;;;;;3.85;2.17;;;;;;;21.49;64.20;96485.44;10537516;28;20190;-70
2022/08/04 02:44:49;;;;;;;2.65;2.20;;;;;;;21.27;65.18;96496.66;10521131;28;20234;-71
2022/08/04 02:49:50;;;;;;;5.00;2.20;;;;;;;21.35;64.65;96485.66;10539073;28;20209;-70
2022/08/04 02:54:53;;;;;;;2.58;1.92;;;;;;;21.24;65.08;96483.78;10537381;28;20230;-70
2022/08/04 03:00:09;;;;;;;2.88;2.45;;;;;;;21.16;65.60;96495.59;10538566;28;20190;-70
2022/08/04 03:05:17;;;;;;;4.35;2.10;;;;;;;21.11;65.64;96494.66;10508339;28;20227;-70
2022/08/04 03:10:17;;;;;;;2.25;2.03;;;;;;;21.12;65.54;96497.09;10493226;28;20180;-70
2022/08/04 03:15:34;;;;;;;2.25;2.05;;;;;;;20.96;66.27;96505.72;10492771;28;20187;-70
2022/08/04 03:20:49;;;;;;;5.28;2.28;;;;;;;20.82;66.90;96515.75;10490892;28;20237;-70
2022/08/04 03:26:05;;;;;;;2.45;2.08;;;;;;;20.80;66.83;96515.97;10490591;28;20642;-70
2022/08/04 03:31:25;;;;;;;3.95;2.08;;;;;;;20.78;66.92;96512.75;10490423;28;20198;-70
2022/08/04 03:36:47;;;;;;;6.82;2.60;;;;;;;20.77;66.95;96515.63;10490468;28;20765;-71
2022/08/04 03:42:25;;;;;;;3.38;1.92;;;;;;;20.90;66.55;96509.31;10491330;28;20195;-70
2022/08/04 03:47:50;;;;;;;2.50;2.22;;;;;;;20.90;66.53;96512.75;10488885;28;20223;-70
2022/08/04 03:53:08;;;;;;;5.28;2.35;;;;;;;21.00;66.04;96506.91;10489114;28;20241;-70
2022/08/04 03:58:25;;;;;;;2.70;2.33;;;;;;;20.95;66.38;96512.09;10489794;28;20207;-70
2022/08/04 04:03:47;;;;;;;3.22;2.10;;;;;;;21.05;65.98;96511.53;10490807;28;20242;-70
2022/08/04 04:09:24;;;;;;;3.80;2.42;;;;;;;21.00;66.30;96515.69;10492572;28;20655;-70
2022/08/04 04:14:43;;;;;;;7.05;2.60;;;;;;;21.10;65.93;96509.84;10494181;28;20630;-70
2022/08/04 04:20:24;;;;;;;2.47;2.20;;;;;;;21.24;65.38;96502.44;10493658;28;20202;-70
2022/08/04 04:25:41;;;;;;;2.67;2.47;;;;;;;21.20;65.66;96504.72;10492453;28;20223;-70
2022/08/04 04:31:04;;;;;;;3.58;2.60;;;;;;;21.18;66.03;96519.34;10491625;28;20202;-71
2022/08/04 04:36:10;;;;;;;3.50;2.45;;;;;;;21.25;66.03;96528.03;10492520;28;20237;-70
2022/08/04 04:41:23;;;;;;;2.30;2.10;;;;;;;21.40;65.54;96516.94;10492472;28;20198;-70
2022/08/04 04:46:37;;;;;;;6.93;2.20;;;;;;;21.64;64.92;96515.13;10487431;28;20227;-70
2022/08/04 04:51:43;;;;;;;3.17;2.20;;;;;;;21.90;64.41;96511.16;10488297;28;20270;-70
2022/08/04 04:57:02;;;;;;;2.80;2.15;;;;;;;22.20;63.37;96498.69;10491549;28;20219;-70
2022/08/04 05:02:18;;;;;;;2.25;2.08;;;;;;;22.36;63.17;96503.34;10491801;28;20190;-71
2022/08/04 05:07:29;;;;;;;7.70;2.20;;;;;;;22.55;62.77;96500.50;10490665;28;20225;-71
2022/08/04 05:13:06;;;;;;;3.70;2.17;;;;;;;22.75;62.53;96503.53;10492708;28;20730;-70
2022/08/04 05:18:11;;;;;;;2.83;1.90;;;;;;;23.13;61.78;96487.91;10490629;28;20968;-71
2022/08/04 05:23:17;;;;;;;2.50;1.63;;;;;;;23.47;60.42;96477.22;10492147;28;20199;-70
2022/08/04 05:28:20;;;;;;;3.28;2.20;;;;;;;23.73;59.71;96454.31;10490469;28;20192;-70
2022/08/04 05:33:25;;;;;;;5.18;2.10;;;;;;;24.02;58.03;96438.13;10490842;28;20617;-71
2022/08/04 05:38:26;;;;;;;2.55;1.90;;;;;;;24.37;57.29;96412.81;10490295;28;20195;-70
2022/08/04 05:43:27;;;;;;;2.00;1.80;;;;;;;24.60;56.31;96416.31;10491811;28;20311;-70
2022/08/04 05:48:28;;;;;;;2.63;1.92;;;;;;;24.88;55.74;96410.63;10490376;28;20666;-70
2022/08/04 05:53:29;;;;;;;2.92;1.98;;;;;;;25.07;54.83;96396.88;10491449;28;20219;-70
2022/08/04 05:58:30;;;;;;;1.85;1.75;;;;;;;25.43;54.15;96384.50;10491375;28;20199;-70
2022/08/04 06:03:31;;;;;;;1.92;1.77;;;;;;;25.85;52.35;96365.91;10490098;28;20230;-70
2022/08/04 06:08:31;;;;;;;3.28;1.80;;;;;;;26.46;51.17;96354.53;10491473;28;20600;-70
2022/08/04 06:13:36;;;;;;;1.60;1.50;;;;;;;27.11;50.50;96356.72;10492187;28;20187;-70
2022/08/04 06:18:38;;;;;;;1.85;1.75;;;;;;;27.80;48.22;96335.56;10496591;28;20187;-70
2022/08/04 06:23:39;;;;;;;5.82;1.98;;;;;;;28.25;47.34;96318.34;10496108;28;20212;-70
2022/08/04 06:28:40;;;;;;;1.75;1.63;;;;;;;28.45;47.60;96335.44;10494584;28;20191;-70
2022/08/04 06:33:41;;;;;;;3.60;1.75;;;;;;;29.02;44.96;96303.47;10507302;28;20199;-71
2022/08/04 06:38:41;;;;;;;3.28;2.00;;;;;;;29.43;44.17;96296.84;10512142;28;20651;-71
2022/08/04 06:43:42;;;;;;;2.75;1.70;;;;;;;29.90;44.40;96310.59;10509417;28;20246;-71
2022/08/04 06:48:43;;;;;;;2.13;1.65;;;;;;;29.63;43.55;96284.97;10495469;28;20206;-71
2022/08/04 06:53:44;;;;;;;2.22;1.80;;;;;;;30.57;42.23;96270.69;10494551;28;20227;-71
2022/08/04 06:58:45;;;;;;;3.38;1.33;;;;;;;31.17;40.12;96243.94;10516056;28;20328;-71
2022/08/04 07:03:46;;;;;;;2.08;1.40;;;;;;;30.57;40.75;96229.34;10533422;28;20677;-71
2022/08/04 07:08:48;;;;;;;2.03;1.60;;;;;;;30.88;40.17;96229.56;10533848;28;20246;-71
2022/08/04 07:13:49;;;;;;;2.67;1.67;;;;;;;30.09;40.95;96229.53;10534680;28;20524;-71
2022/08/04 07:18:49;;;;;;;3.22;1.65;;;;;;;30.40;40.03;96209.06;10533930;28;20202;-71
2022/08/04 07:23:50;;;;;;;1.77;1.37;;;;;;;30.74;39.53;96215.25;10534567;28;20222;-71
2022/08/04 07:28:50;;;;;;;1.70;1.60;;;;;;;30.56;40.12;96228.50;10533395;28;20432;-71
2022/08/04 07:33:51;;;;;;;2.87;1.40;;;;;;;31.17;38.28;96197.94;10512974;28;20258;-71
2022/08/04 07:38:51;;;;;;;1.90;1.60;;;;;;;31.70;38.66;96220.94;10519661;28;20445;-70
2022/08/04 07:43:53;;;;;;;1.73;1.63;;;;;;;31.55;36.94;96163.31;10506682;28;20227;-71
2022/08/04 07:48:54;;;;;;;3.30;1.80;;;;;;;31.22;38.50;96197.81;10502041;28;20227;-71
2022/08/04 07:53:55;;;;;;;1.40;1.20;;;;;;;32.61;36.17;96191.94;10491459;28;20678;-71
2022/08/04 07:58:55;;;;;;;6.57;1.50;;;;;;;31.67;36.86;96167.38;10491034;28;20221;-70
2022/08/04 08:03:56;;;;;;;2.60;1.67;;;;;;;31.50;36.81;96160.66;10490427;28;20222;-71
2022/08/04 08:08:59;;;;;;;3.85;1.77;;;;;;;31.41;36.64;96148.97;10510352;28;20936;-71
2022/08/04 08:14:00;;;;;;;2.10;1.90;;;;;;;31.59;36.62;96169.69;10528955;28;20190;-71
2022/08/04 08:19:01;;;;;;;5.65;1.63;;;;;;;32.59;35.26;96156.16;10531521;28;20197;-71
2022/08/04 08:24:01;;;;;;;2.72;1.70;;;;;;;33.45;33.44;96132.31;10520814;28;20262;-71
2022/08/04 08:29:02;;;;;;;2.22;2.00;;;;;;;31.99;35.65;96125.69;10505907;28;20186;-71
2022/08/04 08:34:03;;;;;;;7.82;1.85;;;;;;;31.57;36.62;96139.41;10509767;28;20213;-71
2022/08/04 08:39:14;;;;;;;6.03;1.60;;;;;;;32.95;34.73;96166.09;10502684;28;20190;-71
2022/08/04 08:44:25;;;;;;;7.78;1.83;;;;;;;33.42;33.50;96136.50;10515047;28;20268;-71
2022/08/04 08:49:37;;;;;;;4.50;1.58;;;;;;;32.85;34.92;96161.72;10529826;28;20213;-71
2022/08/04 08:54:54;;;;;;;1.65;1.40;;;;;;;33.13;34.80;96177.78;10490828;28;20227;-71
2022/08/04 09:00:06;;;;;;;1.80;1.40;;;;;;;31.92;35.95;96149.72;10500190;28;20263;-71
2022/08/04 09:05:39;;;;;;;3.55;1.70;;;;;;;32.25;35.62;96154.91;10527894;28;20311;-71
2022/08/04 09:10:49;;;;;;;2.00;1.80;;;;;;;33.38;34.62;96195.28;10527940;28;20183;-71
2022/08/04 09:16:01;;;;;;;4.90;2.00;;;;;;;32.70;35.98;96209.88;10530200;28;20194;-71
2022/08/04 09:21:08;;;;;;;2.70;1.60;;;;;;;32.76;34.33;96159.00;10530350;28;20244;-71
2022/08/04 09:26:20;;;;;;;2.00;1.63;;;;;;;33.44;34.14;96179.63;10529308;28;20230;-71
2022/08/04 09:31:23;;;;;;;2.28;1.83;;;;;;;31.73;36.57;96161.56;10529034;28;20194;-71
2022/08/04 09:36:38;;;;;;;2.40;1.98;;;;;;;30.92;37.47;96151.31;10528986;28;20210;-71
2022/08/04 09:41:48;;;;;;;6.72;1.63;;;;;;;32.41;35.56;96185.13;10528733;28;20194;-71
2022/08/04 09:47:03;;;;;;;3.20;1.80;;;;;;;31.72;35.96;96164.56;10529282;28;20214;-71
2022/08/04 09:52:09;;;;;;;1.92;1.73;;;;;;;32.36;36.69;96213.97;10537194;28;20190;-71
2022/08/04 09:57:15;;;;;;;5.68;1.60;;;;;;;31.59;36.93;96180.53;10536976;28;20677;-71
2022/08/04 10:02:16;;;;;;;2.20;1.90;;;;;;;32.14;36.25;96184.97;10537799;28;20772;-71
2022/08/04 10:07:55;;;;;;;3.35;1.80;;;;;;;32.93;34.10;96150.13;10536423;28;20229;-71
2022/08/04 10:13:01;;;;;;;4.93;1.70;;;;;;;32.14;35.80;96176.81;10536585;28;20280;-71
2022/08/04 10:18:28;;;;;;;2.22;1.75;;;;;;;32.10;35.30;96156.06;10534198;28;20194;-71
2022/08/04 10:23:51;;;;;;;1.70;1.60;;;;;;;33.53;34.68;96197.53;10535666;28;20660;-71
2022/08/04 10:29:01;;;;;;;4.25;1.85;;;;;;;32.86;35.54;96204.03;10528920;28;20547;-71
2022/08/04 10:34:10;;;;;;;6.05;1.85;;;;;;;32.74;35.07;96168.56;10511292;28;20709;-71
2022/08/04 10:39:17;;;;;;;6.53;1.52;;;;;;;33.02;34.49;96172.66;10494890;28;20191;-71
2022/08/04 10:44:42;;;;;;;3.60;1.55;;;;;;;33.73;34.20;96182.53;10492214;28;20288;-72
2022/08/04 10:49:45;;;;;;;2.03;1.70;;;;;;;32.18;35.78;96150.72;10514293;28;20203;-72
2022/08/04 10:55:12;;;;;;;2.75;1.77;;;;;;;31.18;36.82;96154.34;10531052;28;20272;-71
2022/08/04 11:00:15;;;;;;;2.15;1.85;;;;;;;31.77;36.13;96134.63;10530930;28;20242;-71
2022/08/04 11:05:42;;;;;;;4.22;1.80;;;;;;;33.32;34.25;96169.38;10530943;28;20337;-71
2022/08/04 11:10:51;;;;;;;3.63;2.28;;;;;;;33.78;33.63;96154.41;10510034;28;20202;-72
2022/08/04 11:15:56;;;;;;;2.10;1.77;;;;;;;33.84;33.48;96161.28;10505761;28;20498;-71
2022/08/04 11:21:18;;;;;;;3.70;1.70;;;;;;;33.73;34.33;96168.16;10488225;28;20189;-72
2022/08/04 11:26:23;;;;;;;5.25;2.30;;;;;;;34.32;32.38;96142.34;10509214;28;20306;-72
2022/08/04 11:31:32;;;;;;;4.10;2.05;;;;;;;34.23;32.79;96143.16;10506526;28;20686;-71
2022/08/04 11:36:38;;;;;;;5.63;1.92;;;;;;;34.61;32.15;96138.91;10509937;28;20302;-71
2022/08/04 11:41:56;;;;;;;3.10;1.88;;;;;;;34.50;32.51;96146.63;10507039;28;20209;-72
2022/08/04 11:47:01;;;;;;;5.47;2.08;;;;;;;36.11;30.50;96164.84;10487386;28;20253;-71
2022/08/04 11:52:02;;;;;;;5.55;2.28;;;;;;;34.96;31.22;96116.97;10494638;28;20684;-71
2022/08/04 11:57:03;;;;;;;3.60;2.05;;;;;;;35.74;30.56;96128.47;10529811;28;20186;-72
2022/08/04 12:03:00;;;;;;;5.30;2.08;;;;;;;34.46;31.43;96097.53;10529751;28;20194;-71
2022/08/04 12:08:19;;;;;;;4.50;2.05;;;;;;;34.23;31.77;96085.25;10470103;28;20269;-72
2022/08/04 12:13:40;;;;;;;2.03;1.83;;;;;;;35.80;30.34;96092.50;10502497;28;20202;-71
2022/08/04 12:18:53;;;;;;;4.40;2.00;;;;;;;33.29;31.95;96024.19;10508186;28;20182;-71
2022/08/04 12:23:57;;;;;;;6.00;2.00;;;;;;;34.39;32.47;96110.81;10501072;28;20229;-71
2022/08/04 12:29:00;;;;;;;2.78;2.10;;;;;;;34.85;30.85;96072.22;10530848;28;20202;-72
2022/08/04 12:40:25;;;;;;;4.15;1.90;;;;;;;38.49;27.53;96125.63;10529680;28;20576;-72
2022/08/04 12:45:27;;;;;;;2.65;2.08;;;;;;;40.46;25.60;96115.38;10527150;28;20221;-72
2022/08/04 12:50:28;;;;;;;3.70;2.05;;;;;;;40.86;25.41;96102.25;10528803;28;20651;-71
2022/08/04 12:55:30;;;;;;;6.25;2.33;;;;;;;36.62;28.60;96006.38;10526967;28;20233;-70
2022/08/04 13:00:35;;;;;;;3.92;2.15;;;;;;;35.63;30.11;96059.97;10526090;28;20825;-71
2022/08/04 13:05:36;;;;;;;6.25;2.53;;;;;;;34.70;30.80;96030.03;10530231;28;20233;-71
2022/08/04 13:10:43;;;;;;;5.07;2.30;;;;;;;35.99;28.81;96023.84;10530574;28;20201;-71
2022/08/04 13:15:53;;;;;;;4.15;2.35;;;;;;;36.66;28.43;96020.91;10529352;28;20178;-70
2022/08/04 13:20:55;;;;;;;4.47;2.05;;;;;;;33.23;31.32;95944.03;10527190;28;20202;-70
2022/08/04 13:25:55;;;;;;;6.18;2.33;;;;;;;34.33;30.63;96000.63;10517820;28;20246;-70
2022/08/04 13:30:58;;;;;;;2.17;2.00;;;;;;;35.37;29.70;96022.84;10524588;28;20210;-71
2022/08/04 13:35:59;;;;;;;2.58;1.90;;;;;;;37.01;27.37;95992.34;10535533;28;20217;-71
2022/08/04 13:41:02;;;;;;;4.43;2.15;;;;;;;38.54;26.05;96035.81;10525232;28;20200;-71
2022/08/04 13:46:04;;;;;;;2.67;2.00;;;;;;;35.93;28.14;95956.25;10537199;28;21003;-71
2022/08/04 13:51:06;;;;;;;2.35;2.15;;;;;;;38.00;27.12;96036.44;10538268;28;20235;-71
2022/08/04 13:56:09;;;;;;;7.82;1.90;;;;;;;40.82;24.08;96052.75;10537424;28;20225;-71
2022/08/04 14:01:15;;;;;;;3.42;2.05;;;;;;;39.61;25.11;96018.56;10537072;28;20197;-71
2022/08/04 14:06:28;;;;;;;5.80;2.13;;;;;;;38.63;25.62;95991.06;10536227;28;20582;-71
2022/08/04 14:11:40;;;;;;;2.70;1.90;;;;;;;37.70;26.96;95976.69;10536952;28;20193;-71
2022/08/04 14:17:01;;;;;;;2.92;2.10;;;;;;;36.10;28.93;95961.50;10537131;28;20652;-71
2022/08/04 14:22:01;;;;;;;2.72;1.95;;;;;;;37.68;26.29;95950.84;10536849;28;20221;-71
2022/08/04 14:27:01;;;;;;;3.43;1.87;;;;;;;39.63;24.51;95975.91;10535438;28;20247;-71
2022/08/04 14:32:04;;;;;;;6.43;2.20;;;;;;;37.77;26.51;95970.63;10534700;28;20447;-71
2022/08/04 14:37:09;;;;;;;6.18;2.20;;;;;;;36.84;26.98;95936.88;10533753;28;20448;-70
2022/08/04 14:42:09;;;;;;;2.45;2.10;;;;;;;36.61;27.37;95944.75;10535505;28;20193;-70
2022/08/04 14:47:10;;;;;;;2.67;2.07;;;;;;;37.47;27.44;95996.38;10534466;28;20221;-70
2022/08/04 14:52:22;;;;;;;2.00;1.80;;;;;;;40.89;24.32;96048.53;10531934;28;20475;-71
2022/08/04 14:57:22;;;;;;;2.78;1.95;;;;;;;41.53;23.04;95988.91;10535851;28;20436;-71
2022/08/04 15:02:23;;;;;;;4.03;1.92;;;;;;;37.91;26.81;95937.38;10535193;28;20185;-71
2022/08/04 15:07:23;;;;;;;3.10;2.20;;;;;;;37.89;25.99;95945.94;10533584;28;20253;-70
2022/08/04 15:12:24;;;;;;;2.13;1.92;;;;;;;37.75;26.05;95901.81;10502638;28;20198;-70
2022/08/04 15:17:24;;;;;;;5.65;1.67;;;;;;;38.12;26.65;95970.72;10489846;28;20183;-70
2022/08/04 15:22:25;;;;;;;4.07;2.00;;;;;;;38.50;25.00;95922.75;10489209;28;20759;-70
2022/08/04 15:27:27;;;;;;;2.63;2.05;;;;;;;37.17;26.48;95914.00;10492526;28;20588;-70
2022/08/04 15:32:33;;;;;;;3.22;2.30;;;;;;;36.60;27.96;95934.97;10491355;28;20277;-70
2022/08/04 15:37:55;;;;;;;3.97;1.90;;;;;;;37.14;27.22;95942.00;10513603;28;20268;-71
2022/08/04 15:43:07;;;;;;;2.25;1.70;;;;;;;39.02;25.11;95953.56;10532296;28;20251;-70
2022/08/04 15:48:10;;;;;;;7.20;1.92;;;;;;;37.88;25.75;95908.00;10533410;28;20705;-70
2022/08/04 15:53:10;;;;;;;3.53;1.92;;;;;;;37.05;26.86;95917.56;10533377;28;20320;-70
2022/08/04 15:58:12;;;;;;;6.57;2.10;;;;;;;36.88;27.18;95904.22;10531263;28;20212;-70
2022/08/04 16:03:34;;;;;;;12.50;2.33;;;;;;;36.54;27.42;95890.78;10533293;28;20272;-70
2022/08/04 16:08:49;;;;;;;3.88;2.00;;;;;;;37.38;26.99;95937.56;10532279;28;20288;-71
2022/08/04 16:14:02;;;;;;;2.22;1.90;;;;;;;36.40;27.79;95909.44;10533003;28;20189;-70
2022/08/04 16:19:04;;;;;;;9.70;2.40;;;;;;;34.57;29.56;95869.44;10510214;28;20635;-70
2022/08/04 16:24:14;;;;;;;2.50;2.25;;;;;;;34.08;31.29;95907.19;10512553;28;20214;-70
2022/08/04 16:29:21;;;;;;;5.25;2.40;;;;;;;33.86;31.62;95938.94;10524866;28;20206;-70
2022/08/04 16:34:22;;;;;;;8.82;2.25;;;;;;;32.86;32.80;95938.16;10489163;28;20223;-70
2022/08/04 16:39:22;;;;;;;7.75;2.55;;;;;;;32.68;33.49;95946.28;10490298;28;20571;-71
2022/08/04 16:44:35;;;;;;;3.92;2.38;;;;;;;32.14;34.16;95973.56;10491703;28;20239;-72
2022/08/04 16:49:35;;;;;;;5.97;2.00;;;;;;;32.01;34.44;95975.25;10491192;28;20187;-70
2022/08/04 16:54:36;;;;;;;5.30;2.43;;;;;;;32.16;34.46;95986.81;10490238;28;20227;-71
2022/08/04 16:59:36;;;;;;;2.50;2.30;;;;;;;32.13;34.45;95982.84;10488892;28;20441;-71
2022/08/04 17:04:37;;;;;;;4.50;2.40;;;;;;;31.90;34.90;95981.25;10493734;28;20206;-71
2022/08/04 17:09:48;;;;;;;6.23;2.27;;;;;;;31.64;35.07;95973.84;10507442;28;20221;-71
2022/08/04 17:14:48;;;;;;;4.15;2.38;;;;;;;31.50;35.33;95983.91;10510090;28;20952;-71
2022/08/04 17:19:52;;;;;;;3.35;2.42;;;;;;;31.25;35.73;95994.25;10501090;28;20199;-71
2022/08/04 17:24:52;;;;;;;13.50;2.33;;;;;;;31.10;36.48;96004.34;10490983;28;20233;-71
2022/08/04 17:29:53;;;;;;;4.18;2.30;;;;;;;31.01;36.06;95995.34;10490355;28;20301;-71
2022/08/04 17:34:57;;;;;;;5.40;2.78;;;;;;;30.56;37.38;96016.84;10490378;28;20686;-71
2022/08/04 17:40:12;;;;;;;7.22;2.70;;;;;;;30.58;37.19;96012.75;10488910;28;20196;-71
2022/08/04 17:45:15;;;;;;;3.00;2.20;;;;;;;30.19;37.61;96027.53;10490785;28;20678;-71
2022/08/04 17:50:33;;;;;;;3.95;1.83;;;;;;;30.19;37.82;96024.06;10488442;28;20199;-71
2022/08/04 17:55:44;;;;;;;2.75;1.98;;;;;;;30.02;38.02;96028.13;10489919;28;20234;-71
2022/08/04 18:00:45;;;;;;;8.18;2.17;;;;;;;29.70;38.80;96043.25;10489760;28;20591;-70
2022/08/04 18:05:45;;;;;;;3.55;1.70;;;;;;;29.58;39.00;96045.59;10488866;28;20221;-71
2022/08/04 18:10:45;;;;;;;2.70;2.00;;;;;;;29.49;39.48;96056.28;10495065;28;20199;-70
2022/08/04 18:15:46;;;;;;;5.70;2.13;;;;;;;29.20;39.83;96058.31;10497330;28;20546;-71
2022/08/04 18:20:47;;;;;;;4.40;1.92;;;;;;;29.14;40.27;96066.50;10497051;28;20550;-70
2022/08/04 18:25:47;;;;;;;3.55;2.03;;;;;;;28.96;40.33;96080.75;10530348;28;20225;-70
2022/08/04 18:30:47;;;;;;;6.82;2.05;;;;;;;28.75;41.60;96093.72;10537345;28;20183;-70
2022/08/04 18:35:48;;;;;;;9.40;2.00;;;;;;;28.32;41.64;96097.13;10533442;28;20230;-70
2022/08/04 18:40:48;;;;;;;6.13;1.95;;;;;;;28.08;42.51;96110.56;10533359;28;20242;-70
2022/08/04 18:45:49;;;;;;;2.20;2.00;;;;;;;28.00;42.63;96130.84;10537939;28;20214;-70
2022/08/04 18:50:49;;;;;;;4.10;1.80;;;;;;;27.76;43.48;96136.09;10537902;28;20192;-70
2022/08/04 18:55:49;;;;;;;11.77;2.00;;;;;;;27.56;43.72;96143.22;10537412;28;20479;-70
2022/08/04 19:00:50;;;;;;;4.00;1.92;;;;;;;27.38;44.04;96149.28;10519225;28;20444;-70
2022/08/04 19:05:50;;;;;;;3.23;2.10;;;;;;;27.18;44.58;96166.28;10495452;28;20299;-70
2022/08/04 19:10:50;;;;;;;2.13;1.90;;;;;;;26.95;45.06;96171.22;10495154;28;20445;-70
2022/08/04 19:15:52;;;;;;;2.40;1.80;;;;;;;26.70;45.54;96181.00;10495448;28;20195;-70
2022/08/04 19:20:52;;;;;;;2.58;1.75;;;;;;;26.46;45.96;96191.50;10493663;28;20495;-70
2022/08/04 19:25:53;;;;;;;3.47;2.08;;;;;;;26.48;45.96;96202.78;10497725;28;20215;-70
2022/08/04 19:30:54;;;;;;;2.45;2.08;;;;;;;26.21;46.75;96200.38;10532334;28;20189;-71
2022/08/04 19:35:54;;;;;;;6.03;2.47;;;;;;;26.03;47.30;96214.34;10535889;28;20219;-70
2022/08/04 19:40:55;;;;;;;2.10;2.00;;;;;;;25.70;48.41;96227.16;10535958;28;20280;-70
2022/08/04 19:45:55;;;;;;;5.20;2.25;;;;;;;25.81;48.32;96223.41;10535610;28;20226;-70
2022/08/04 19:50:55;;;;;;;4.82;2.05;;;;;;;25.72;48.13;96223.13;10535654;28;20274;-70
2022/08/04 19:55:56;;;;;;;5.00;2.30;;;;;;;25.57;48.91;96231.16;10535153;28;20218;-70
2022/08/04 20:00:56;;;;;;;5.78;2.20;;;;;;;25.30;49.62;96244.72;10535106;28;20659;-70
2022/08/04 20:05:56;;;;;;;6.05;2.50;;;;;;;25.18;50.10;96247.63;10534897;28;20592;-70
2022/08/04 20:10:58;;;;;;;2.63;2.10;;;;;;;24.90;50.66;96260.31;10534876;28;20194;-70
2022/08/04 20:15:59;;;;;;;8.50;2.13;;;;;;;25.00;50.52;96264.94;10528223;28;20274;-70
2022/08/04 20:20:59;;;;;;;6.43;2.53;;;;;;;24.88;50.95;96267.81;10533702;28;20217;-70
2022/08/04 20:26:00;;;;;;;6.47;2.33;;;;;;;24.71;51.56;96278.69;10534435;28;20222;-70
2022/08/04 20:31:00;;;;;;;7.15;1.90;;;;;;;24.85;50.96;96276.38;10533520;28;20186;-70
2022/08/04 20:36:00;;;;;;;4.65;2.15;;;;;;;24.84;51.16;96270.22;10533350;28;20634;-70
2022/08/04 20:41:01;;;;;;;3.08;2.58;;;;;;;24.89;50.99;96261.41;10533532;28;20637;-70
2022/08/04 20:46:02;;;;;;;10.70;2.70;;;;;;;24.83;51.40;96265.13;10533057;28;20606;-70
2022/08/04 20:51:02;;;;;;;2.80;2.50;;;;;;;24.69;51.53;96275.47;10533345;28;20194;-70
2022/08/04 20:56:03;;;;;;;2.58;2.22;;;;;;;24.82;50.85;96264.28;10532594;28;20230;-70
2022/08/04 21:01:03;;;;;;;4.10;2.50;;;;;;;24.75;51.27;96264.53;10533466;28;20685;-70
2022/08/04 21:06:03;;;;;;;3.20;2.33;;;;;;;24.93;50.57;96255.28;10532777;28;20599;-70
2022/08/04 21:11:04;;;;;;;2.85;2.45;;;;;;;24.85;50.77;96253.06;10532671;28;20618;-70
2022/08/04 21:16:04;;;;;;;2.80;2.60;;;;;;;24.76;51.08;96254.59;10533165;28;20218;-70
2022/08/04 21:21:05;;;;;;;5.30;2.90;;;;;;;24.91;50.72;96254.69;10531887;28;20198;-70
2022/08/04 21:26:05;;;;;;;5.60;2.60;;;;;;;24.79;51.34;96256.78;10532597;28;20229;-69
2022/08/04 21:31:05;;;;;;;5.90;2.85;;;;;;;24.81;50.78;96251.97;10532090;28;20190;-70
2022/08/04 21:36:06;;;;;;;5.82;2.60;;;;;;;24.83;50.76;96252.53;10532699;28;20331;-70
2022/08/04 21:41:06;;;;;;;6.28;2.85;;;;;;;24.81;50.73;96249.31;10514548;28;20197;-70
2022/08/04 21:46:07;;;;;;;5.55;2.63;;;;;;;24.60;51.19;96258.28;10514010;28;20219;-70
2022/08/04 21:51:18;;;;;;;4.20;3.15;;;;;;;24.50;51.42;96254.44;10517336;28;20232;-70
2022/08/04 21:56:18;;;;;;;6.28;3.75;;;;;;;24.44;51.65;96255.47;10501533;28;20655;-70
2022/08/04 22:01:19;;;;;;;4.57;2.80;;;;;;;24.28;52.28;96254.50;10497730;28;20190;-70
2022/08/04 22:06:20;;;;;;;3.95;2.95;;;;;;;24.26;51.97;96262.00;10496947;28;20226;-70
2022/08/04 22:11:22;;;;;;;5.05;2.67;;;;;;;24.38;51.62;96245.78;10497395;28;20189;-70
2022/08/04 22:16:22;;;;;;;4.82;3.03;;;;;;;24.31;51.66;96245.97;10497137;28;20316;-70
2022/08/04 22:21:29;;;;;;;3.80;2.83;;;;;;;24.25;51.72;96238.97;10496889;28;20213;-70
2022/08/04 22:26:30;;;;;;;8.93;2.70;;;;;;;24.38;50.30;96219.78;10496743;28;20596;-70
2022/08/04 22:31:30;;;;;;;3.92;2.80;;;;;;;24.24;51.21;96231.97;10496710;28;20225;-70
2022/08/04 22:36:30;;;;;;;6.43;2.60;;;;;;;24.14;51.20;96219.34;10496417;28;20203;-71
2022/08/04 22:41:31;;;;;;;4.72;2.90;;;;;;;23.98;51.76;96228.28;10496125;28;20191;-70
2022/08/04 22:46:31;;;;;;;5.05;2.72;;;;;;;23.89;51.56;96224.47;10496128;28;20219;-70
2022/08/04 22:51:31;;;;;;;4.75;2.40;;;;;;;23.88;52.04;96225.53;10495897;28;20203;-70
2022/08/04 22:56:32;;;;;;;4.78;2.47;;;;;;;23.91;51.59;96212.47;10494662;28;20321;-70
2022/08/04 23:01:34;;;;;;;3.45;2.60;;;;;;;23.92;51.37;96214.09;10495796;28;20245;-70
2022/08/04 23:06:35;;;;;;;4.35;2.78;;;;;;;23.84;51.26;96209.16;10495348;28;20961;-70
2022/08/04 23:11:35;;;;;;;3.75;2.60;;;;;;;24.07;50.33;96185.81;10494847;28;20191;-70
2022/08/04 23:16:36;;;;;;;4.38;2.58;;;;;;;23.89;50.96;96200.38;10495271;28;20199;-70
2022/08/04 23:21:36;;;;;;;6.05;2.72;;;;;;;23.94;51.12;96203.94;10493836;28;20206;-70
2022/08/04 23:26:37;;;;;;;7.63;3.10;;;;;;;23.89;51.20;96200.38;10494889;28;20242;-70
2022/08/04 23:31:37;;;;;;;5.95;3.40;;;;;;;23.73;51.75;96205.56;10494105;28;20202;-70
2022/08/04 23:36:38;;;;;;;3.75;2.97;;;;;;;23.79;51.57;96204.56;10493859;28;20290;-69
2022/08/04 23:41:38;;;;;;;8.80;3.22;;;;;;;23.65;51.94;96196.13;10493293;28;20191;-70
2022/08/04 23:46:38;;;;;;;3.85;2.70;;;;;;;23.78;52.02;96197.59;10493613;28;20306;-70
2022/08/04 23:51:39;;;;;;;3.47;2.70;;;;;;;23.67;52.60;96209.25;10509428;28;20187;-70